^^
Saratoga-Weather Station Historical Data
Daily Summary for June 7, 2021 Units:  Metric    English   Both
Daily Weekly Monthly Yearly Custom
  High: Low: Average:
Temperature: 22.7 °C 11.9 °C 16.4 °C
Dew Point: 15.4 °C 11.1 °C 13.3 °C
Humidity: 96% 56% 83%
Wind Speed: 11.1km/h 0km/h 1.9km/h
Wind Gust: 19.3km/h - -
Wind- - SSE
Pressure: 1015.6 hPa 1012.5 hPa -
Precipitation: 0.0 mm    
Historical Graphs
 
 
Tabular Data for June 7, 2021
Time Temperature Dew Point Pressure Wind Wind Speed Wind Gust Humidity Rainfall Rate (Hourly) solar
00:03 16.2 °C 14.4 °C 1012.5 hPa NE 1.4 km/h 3.2 km/h 89% 0.0 mm 0 W/m2
00:08 16.1 °C 14.3 °C 1012.5 hPa South 1.4 km/h 3.2 km/h 89% 0.0 mm 0 W/m2
00:13 16.1 °C 14.3 °C 1012.9 hPa Calm   1.6 km/h 89% 0.0 mm 0 W/m2
00:18 15.9 °C 14.1 °C 1012.5 hPa Calm   4.8 km/h 89% 0.0 mm 0 W/m2
00:23 15.8 °C 14 °C 1012.5 hPa West 3.2 km/h 6.4 km/h 89% 0.0 mm 0 W/m2
00:28 15.7 °C 14.1 °C 1012.5 hPa NW 1.4 km/h 6.4 km/h 90% 0.0 mm 0 W/m2
00:33 15.7 °C 13.9 °C 1012.5 hPa ESE 3.2 km/h 4.8 km/h 89% 0.0 mm 0 W/m2
00:38 15.7 °C 13.9 °C 1012.5 hPa Calm   6.4 km/h 89% 0.0 mm 0 W/m2
00:43 15.6 °C 14 °C 1012.5 hPa Calm   3.2 km/h 90% 0.0 mm 0 W/m2
00:48 15.6 °C 14 °C 1012.5 hPa SE 3.2 km/h 4.8 km/h 90% 0.0 mm 0 W/m2
00:53 15.6 °C 14 °C 1012.5 hPa Calm   3.2 km/h 90% 0.0 mm 0 W/m2
00:58 15.6 °C 14 °C 1012.9 hPa Calm   3.2 km/h 90% 0.0 mm 0 W/m2
01:03 15.6 °C 14 °C 1012.9 hPa ENE 1.4 km/h 1.6 km/h 90% 0.0 mm 0 W/m2
01:08 15.5 °C 13.9 °C 1012.9 hPa East 1.4 km/h 3.2 km/h 90% 0.0 mm 0 W/m2
01:13 15.4 °C 13.8 °C 1012.9 hPa East 1.4 km/h 4.8 km/h 90% 0.0 mm 0 W/m2
01:18 15.3 °C 13.7 °C 1012.9 hPa East 1.4 km/h 4.8 km/h 90% 0.0 mm 0 W/m2
01:23 15.3 °C 13.8 °C 1012.9 hPa East 1.4 km/h 1.6 km/h 91% 0.0 mm 0 W/m2
01:28 15.1 °C 13.6 °C 1012.9 hPa East 1.4 km/h 4.8 km/h 91% 0.0 mm 0 W/m2
01:33 15 °C 13.5 °C 1012.9 hPa East 3.2 km/h 3.2 km/h 91% 0.0 mm 0 W/m2
01:38 14.9 °C 13.6 °C 1012.9 hPa Calm   4.8 km/h 92% 0.0 mm 0 W/m2
01:43 14.8 °C 13.5 °C 1012.9 hPa Calm     92% 0.0 mm 0 W/m2
01:48 14.7 °C 13.4 °C 1012.9 hPa Calm   1.6 km/h 92% 0.0 mm 0 W/m2
01:53 14.7 °C 13.4 °C 1012.9 hPa Calm     92% 0.0 mm 0 W/m2
01:58 14.6 °C 13.3 °C 1012.9 hPa Calm     92% 0.0 mm 0 W/m2
02:03 14.5 °C 13.2 °C 1012.9 hPa Calm     92% 0.0 mm 0 W/m2
02:08 14.4 °C 13.1 °C 1012.9 hPa Calm     92% 0.0 mm 0 W/m2
02:13 14.3 °C 13 °C 1012.9 hPa Calm     92% 0.0 mm 0 W/m2
02:18 14.2 °C 13.1 °C 1012.9 hPa Calm     93% 0.0 mm 0 W/m2
02:23 14.2 °C 13.1 °C 1012.9 hPa Calm     93% 0.0 mm 0 W/m2
02:28 14.1 °C 13 °C 1012.9 hPa Calm     93% 0.0 mm 0 W/m2
02:33 14 °C 12.9 °C 1012.9 hPa Calm   1.6 km/h 93% 0.0 mm 0 W/m2
02:38 13.9 °C 12.8 °C 1013.2 hPa Calm     93% 0.0 mm 0 W/m2
02:43 13.9 °C 12.8 °C 1013.2 hPa East 1.4 km/h 1.6 km/h 93% 0.0 mm 0 W/m2
02:48 13.9 °C 12.9 °C 1012.9 hPa Calm   1.6 km/h 94% 0.0 mm 0 W/m2
02:53 13.8 °C 12.9 °C 1013.2 hPa Calm   3.2 km/h 94% 0.0 mm 0 W/m2
02:58 13.9 °C 12.9 °C 1012.9 hPa Calm     94% 0.0 mm 0 W/m2
03:03 13.8 °C 12.9 °C 1013.2 hPa Calm     94% 0.0 mm 0 W/m2
03:08 13.8 °C 12.9 °C 1012.9 hPa Calm     94% 0.0 mm 0 W/m2
03:13 13.7 °C 12.8 °C 1012.9 hPa Calm     94% 0.0 mm 0 W/m2
03:18 13.6 °C 12.7 °C 1012.9 hPa Calm     94% 0.0 mm 0 W/m2
03:23 13.5 °C 12.6 °C 1012.9 hPa Calm     94% 0.0 mm 0 W/m2
03:28 13.4 °C 12.5 °C 1012.9 hPa Calm     94% 0.0 mm 0 W/m2
03:33 13.4 °C 12.5 °C 1012.9 hPa Calm     94% 0.0 mm 0 W/m2
03:38 13.3 °C 12.4 °C 1012.9 hPa Calm     94% 0.0 mm 0 W/m2
03:43 13.2 °C 12.3 °C 1013.2 hPa Calm     94% 0.0 mm 0 W/m2
03:48 13.2 °C 12.3 °C 1013.2 hPa Calm     94% 0.0 mm 0 W/m2
03:53 13.1 °C 12.2 °C 1012.9 hPa Calm     94% 0.0 mm 0 W/m2
03:58 13.1 °C 12.2 °C 1012.9 hPa Calm     94% 0.0 mm 0 W/m2
04:03 13 °C 12.1 °C 1012.9 hPa Calm     94% 0.0 mm 0 W/m2
04:08 12.9 °C 12 °C 1012.9 hPa Calm     94% 0.0 mm 0 W/m2
04:13 12.8 °C 11.9 °C 1012.9 hPa Calm     94% 0.0 mm 0 W/m2
04:18 12.8 °C 11.9 °C 1012.9 hPa Calm     94% 0.0 mm 0 W/m2
04:23 12.7 °C 11.8 °C 1012.9 hPa Calm     94% 0.0 mm 0 W/m2
04:28 12.6 °C 11.7 °C 1012.9 hPa Calm     94% 0.0 mm 0 W/m2
04:33 12.6 °C 11.7 °C 1012.9 hPa Calm     94% 0.0 mm 0 W/m2
04:38 12.5 °C 11.7 °C 1013.2 hPa Calm     95% 0.0 mm 0 W/m2
04:43 12.4 °C 11.6 °C 1013.2 hPa Calm     95% 0.0 mm 0 W/m2
04:48 12.3 °C 11.5 °C 1013.2 hPa Calm     95% 0.0 mm 0 W/m2
04:53 12.3 °C 11.5 °C 1013.2 hPa Calm     95% 0.0 mm 0 W/m2
04:58 12.2 °C 11.4 °C 1013.2 hPa Calm     95% 0.0 mm 0 W/m2
05:03 12.2 °C 11.4 °C 1013.2 hPa Calm     95% 0.0 mm 0 W/m2
05:08 12.2 °C 11.4 °C 1013.2 hPa Calm     95% 0.0 mm 0 W/m2
05:13 12.2 °C 11.4 °C 1013.2 hPa Calm     95% 0.0 mm 0 W/m2
05:18 12.1 °C 11.3 °C 1013.5 hPa Calm     95% 0.0 mm 0 W/m2
05:23 12.1 °C 11.3 °C 1013.5 hPa Calm     95% 0.0 mm 0 W/m2
05:28 12.1 °C 11.3 °C 1013.5 hPa Calm     95% 0.0 mm 0 W/m2
05:33 12 °C 11.2 °C 1013.5 hPa Calm     95% 0.0 mm 0 W/m2
05:38 11.9 °C 11.1 °C 1013.5 hPa Calm     95% 0.0 mm 0 W/m2
05:43 11.9 °C 11.1 °C 1013.5 hPa Calm     95% 0.0 mm 0 W/m2
05:48 12 °C 11.4 °C 1013.5 hPa Calm     96% 0.0 mm 0 W/m2
05:53 12.1 °C 11.5 °C 1013.5 hPa Calm     96% 0.0 mm 5 W/m2
05:58 12 °C 11.4 °C 1013.5 hPa Calm     96% 0.0 mm 5 W/m2
06:03 11.9 °C 11.3 °C 1013.5 hPa Calm     96% 0.0 mm 5 W/m2
06:08 12 °C 11.4 °C 1013.9 hPa Calm     96% 0.0 mm 7 W/m2
06:13 12.1 °C 11.5 °C 1013.9 hPa Calm     96% 0.0 mm 14 W/m2
06:18 12.2 °C 11.6 °C 1013.9 hPa Calm     96% 0.0 mm 19 W/m2
06:23 12.2 °C 11.6 °C 1013.9 hPa Calm     96% 0.0 mm 26 W/m2
06:28 12.3 °C 11.7 °C 1014.2 hPa Calm     96% 0.0 mm 37 W/m2
06:33 12.3 °C 11.7 °C 1014.2 hPa Calm     96% 0.0 mm 62 W/m2
06:38 12.5 °C 11.9 °C 1014.2 hPa East 1.4 km/h 1.6 km/h 96% 0.0 mm 76 W/m2
06:43 12.6 °C 12 °C 1014.2 hPa Calm     96% 0.0 mm 76 W/m2
06:48 12.8 °C 12.2 °C 1014.2 hPa Calm   3.2 km/h 96% 0.0 mm 65 W/m2
06:53 12.8 °C 12.2 °C 1014.2 hPa ESE 1.4 km/h 1.6 km/h 96% 0.0 mm 67 W/m2
06:58 12.8 °C 12.2 °C 1014.6 hPa Calm     96% 0.0 mm 58 W/m2
07:03 12.9 °C 12.3 °C 1014.2 hPa Calm     96% 0.0 mm 63 W/m2
07:08 12.9 °C 12.3 °C 1014.6 hPa Calm   4.8 km/h 96% 0.0 mm 79 W/m2
07:13 13 °C 12.4 °C 1014.6 hPa Calm   3.2 km/h 96% 0.0 mm 79 W/m2
07:18 13.1 °C 12.5 °C 1014.6 hPa ENE 4.7 km/h 4.8 km/h 96% 0.0 mm 51 W/m2
07:23 13.1 °C 12.5 °C 1014.6 hPa East 3.2 km/h 3.2 km/h 96% 0.0 mm 49 W/m2
07:28 13.2 °C 12.6 °C 1014.6 hPa Calm     96% 0.0 mm 51 W/m2
07:33 13.2 °C 12.6 °C 1014.6 hPa ENE 1.4 km/h 3.2 km/h 96% 0.0 mm 53 W/m2
07:38 13.3 °C 12.7 °C 1014.6 hPa East 3.2 km/h 4.8 km/h 96% 0.0 mm 51 W/m2
07:43 13.3 °C 12.7 °C 1014.6 hPa East 1.4 km/h 3.2 km/h 96% 0.0 mm 54 W/m2
07:48 13.5 °C 12.7 °C 1014.6 hPa Calm   3.2 km/h 95% 0.0 mm 83 W/m2
07:53 13.7 °C 13.1 °C 1014.6 hPa ENE 3.2 km/h 4.8 km/h 96% 0.0 mm 220 W/m2
07:58 13.9 °C 13.3 °C 1014.6 hPa NNE 4.7 km/h 6.4 km/h 96% 0.0 mm 236 W/m2
08:03 14.4 °C 13.6 °C 1014.6 hPa East 4.7 km/h 4.8 km/h 95% 0.0 mm 211 W/m2
08:08 14.8 °C 13.8 °C 1014.6 hPa ESE 3.2 km/h 6.4 km/h 94% 0.0 mm 220 W/m2
08:13 15.2 °C 14.1 °C 1014.6 hPa North 3.2 km/h 4.8 km/h 93% 0.0 mm 128 W/m2
08:18 15.6 °C 14.3 °C 1014.6 hPa ESE 4.7 km/h 6.4 km/h 92% 0.0 mm 56 W/m2
08:23 15.9 °C 14.3 °C 1014.9 hPa NNE 1.4 km/h 3.2 km/h 90% 0.0 mm 54 W/m2
08:28 16.2 °C 14.2 °C 1014.9 hPa North 1.4 km/h 6.4 km/h 88% 0.0 mm 53 W/m2
08:33 16.3 °C 14.1 °C 1014.9 hPa ESE 3.2 km/h 4.8 km/h 87% 0.0 mm 53 W/m2
08:38 16.6 °C 14.2 °C 1014.9 hPa NE 1.4 km/h 4.8 km/h 86% 0.0 mm 51 W/m2
08:43 16.8 °C 14.3 °C 1014.9 hPa NNE 4.7 km/h 4.8 km/h 85% 0.0 mm 53 W/m2
08:48 17 °C 14.5 °C 1014.9 hPa NE 4.7 km/h 4.8 km/h 85% 0.0 mm 60 W/m2
08:53 17.3 °C 14.8 °C 1014.9 hPa NE 4.7 km/h 4.8 km/h 85% 0.0 mm 67 W/m2
08:58 17.4 °C 14.7 °C 1014.9 hPa NNE 4.7 km/h 4.8 km/h 84% 0.0 mm 65 W/m2
09:03 17.6 °C 14.5 °C 1014.9 hPa North 8 km/h 8 km/h 82% 0.0 mm 58 W/m2
09:08 17.7 °C 14.8 °C 1014.9 hPa ENE 1.4 km/h 6.4 km/h 83% 0.0 mm 90 W/m2
09:13 17.8 °C 14.5 °C 1014.9 hPa Calm   4.8 km/h 81% 0.0 mm 244 W/m2
09:18 17.8 °C 14.5 °C 1014.9 hPa NE 1.4 km/h 1.6 km/h 81% 0.0 mm 455 W/m2
09:23 17.9 °C 14.6 °C 1014.9 hPa NNW 1.4 km/h 4.8 km/h 81% 0.0 mm 494 W/m2
09:28 18 °C 14.9 °C 1014.9 hPa East 4.7 km/h 4.8 km/h 82% 0.0 mm 508 W/m2
09:33 18.2 °C 14.7 °C 1014.9 hPa WNW 3.2 km/h 6.4 km/h 80% 0.0 mm 508 W/m2
09:38 18.3 °C 14.8 °C 1014.9 hPa ESE 3.2 km/h 3.2 km/h 80% 0.0 mm 519 W/m2
09:43 18.6 °C 14.9 °C 1014.9 hPa North 3.2 km/h 4.8 km/h 79% 0.0 mm 548 W/m2
09:48 18.7 °C 14.6 °C 1014.9 hPa SE 3.2 km/h 4.8 km/h 77% 0.0 mm 550 W/m2
09:53 18.9 °C 14.8 °C 1014.9 hPa East 1.4 km/h 3.2 km/h 77% 0.0 mm 554 W/m2
09:58 19.1 °C 14.6 °C 1014.9 hPa NNE 1.4 km/h 3.2 km/h 75% 0.0 mm 568 W/m2
10:03 19.3 °C 15 °C 1014.9 hPa ENE 3.2 km/h 3.2 km/h 76% 0.0 mm 578 W/m2
10:08 19.6 °C 15 °C 1014.9 hPa NNE 3.2 km/h 4.8 km/h 75% 0.0 mm 496 W/m2
10:13 19.9 °C 14.9 °C 1014.9 hPa WNW 1.4 km/h 4.8 km/h 73% 0.0 mm 121 W/m2
10:18 20.1 °C 15.3 °C 1014.9 hPa ENE 6.4 km/h 9.7 km/h 74% 0.0 mm 647 W/m2
10:23 20 °C 15.4 °C 1014.9 hPa NE 3.2 km/h 4.8 km/h 75% 0.0 mm 705 W/m2
10:28 20.1 °C 15.3 °C 1015.2 hPa NE 1.4 km/h 3.2 km/h 74% 0.0 mm 812 W/m2
10:33 20.3 °C 15.1 °C 1014.9 hPa Calm   4.8 km/h 72% 0.0 mm 921 W/m2
10:38 20.4 °C 15.2 °C 1015.2 hPa ESE 1.4 km/h 4.8 km/h 72% 0.0 mm 367 W/m2
10:43 20.6 °C 14.3 °C 1015.2 hPa Calm   4.8 km/h 67% 0.0 mm 397 W/m2
10:48 20.5 °C 14.4 °C 1015.2 hPa WNW 3.2 km/h 4.8 km/h 68% 0.0 mm 401 W/m2
10:53 20.4 °C 14.1 °C 1015.2 hPa East 1.4 km/h 3.2 km/h 67% 0.0 mm 338 W/m2
10:58 20.5 °C 13.9 °C 1015.2 hPa Calm   4.8 km/h 66% 0.0 mm 1000 W/m2
11:04 20.6 °C 13.8 °C 1015.2 hPa Calm   3.2 km/h 65% 0.0 mm 443 W/m2
11:09 20.7 °C 13.9 °C 1015.2 hPa West 9.7 km/h 11.3 km/h 65% 0.0 mm 789 W/m2
11:14 20.7 °C 14.1 °C 1015.2 hPa WSW 6.4 km/h 6.4 km/h 66% 0.0 mm 758 W/m2
11:19 20.6 °C 13.6 °C 1015.6 hPa WNW 6.4 km/h 6.4 km/h 64% 0.0 mm 766 W/m2
11:24 20.6 °C 13.3 °C 1015.6 hPa West 11.1 km/h 11.3 km/h 63% 0.0 mm 701 W/m2
11:29 20.7 °C 13.6 °C 1015.2 hPa NW 1.4 km/h 8 km/h 64% 0.0 mm 872 W/m2
11:34 20.7 °C 13.6 °C 1015.2 hPa NW 1.4 km/h 12.9 km/h 64% 0.0 mm 381 W/m2
11:39 20.6 °C 13.3 °C 1015.2 hPa NW 3.2 km/h 8 km/h 63% 0.0 mm 290 W/m2
11:44 20.6 °C 13.6 °C 1015.2 hPa East 4.7 km/h 9.7 km/h 64% 0.0 mm 301 W/m2
11:49 20.6 °C 13.8 °C 1015.2 hPa WNW 4.7 km/h 4.8 km/h 65% 0.0 mm 211 W/m2
11:54 20.7 °C 13.6 °C 1015.2 hPa NE 4.7 km/h 6.4 km/h 64% 0.0 mm 394 W/m2
11:59 20.9 °C 13.8 °C 1015.6 hPa WNW 4.7 km/h 11.3 km/h 64% 0.0 mm 904 W/m2
12:04 21.1 °C 13.8 °C 1015.2 hPa NE 6.4 km/h 6.4 km/h 63% 0.0 mm 967 W/m2
12:09 21.3 °C 14.7 °C 1015.2 hPa West 6.4 km/h 12.9 km/h 66% 0.0 mm 1048 W/m2
12:14 21.5 °C 13.7 °C 1015.2 hPa NE 1.4 km/h 3.2 km/h 61% 0.0 mm 352 W/m2
12:19 21.4 °C 13.8 °C 1015.2 hPa WSW 4.7 km/h 12.9 km/h 62% 0.0 mm 246 W/m2
12:24 21 °C 13.7 °C 1015.2 hPa SSW 4.7 km/h 6.4 km/h 63% 0.0 mm 348 W/m2
12:29 20.9 °C 13.6 °C 1015.2 hPa NE 1.4 km/h 9.7 km/h 63% 0.0 mm 708 W/m2
12:34 20.9 °C 13.8 °C 1015.6 hPa WSW 7.9 km/h 11.3 km/h 64% 0.0 mm 963 W/m2
12:39 21 °C 13.7 °C 1015.6 hPa SW 1.4 km/h 3.2 km/h 63% 0.0 mm 287 W/m2
12:44 21.2 °C 13.9 °C 1015.6 hPa ENE 1.4 km/h 8 km/h 63% 0.0 mm 353 W/m2
12:49 21.2 °C 13.6 °C 1015.6 hPa West 3.2 km/h 4.8 km/h 62% 0.0 mm 220 W/m2
12:54 21.2 °C 14.4 °C 1015.2 hPa Calm   3.2 km/h 65% 0.0 mm 260 W/m2
12:59 21.6 °C 14 °C 1015.2 hPa SE 1.4 km/h 8 km/h 62% 0.0 mm 1139 W/m2
13:04 22.1 °C 14.7 °C 1015.2 hPa WSW 3.2 km/h 4.8 km/h 63% 0.0 mm 1097 W/m2
13:09 22.2 °C 14.3 °C 1015.2 hPa WNW 3.2 km/h 4.8 km/h 61% 0.0 mm 424 W/m2
13:14 21.9 °C 13.3 °C 1015.6 hPa WSW 6.4 km/h 9.7 km/h 58% 0.0 mm 255 W/m2
13:19 21.6 °C 13.5 °C 1015.6 hPa WNW 6.4 km/h 8 km/h 60% 0.0 mm 227 W/m2
13:24 21.3 °C 13.2 °C 1015.6 hPa WSW 1.4 km/h 11.3 km/h 60% 0.0 mm 241 W/m2
13:29 21.3 °C 13.7 °C 1015.6 hPa Calm   6.4 km/h 62% 0.0 mm 1023 W/m2
13:34 21.7 °C 13.3 °C 1015.6 hPa WSW 11.1 km/h 11.3 km/h 59% 0.0 mm 1021 W/m2
13:39 22.2 °C 14.3 °C 1015.6 hPa WNW 3.2 km/h 3.2 km/h 61% 0.0 mm 1072 W/m2
13:44 22.6 °C 13.9 °C 1015.6 hPa West 11.1 km/h 12.9 km/h 58% 0.0 mm 1097 W/m2
13:49 22.4 °C 13.5 °C 1015.6 hPa Calm   12.9 km/h 57% 0.0 mm 1114 W/m2
13:54 22.7 °C 13.5 °C 1015.6 hPa NE 3.2 km/h 16.1 km/h 56% 0.0 mm 1049 W/m2
13:59 22.7 °C 13.7 °C 1015.6 hPa NW 3.2 km/h 8 km/h 57% 0.0 mm 534 W/m2
14:04 22.7 °C 13.7 °C 1015.6 hPa WSW 6.4 km/h 17.7 km/h 57% 0.0 mm 281 W/m2
14:09 22.7 °C 14.3 °C 1015.6 hPa WNW 9.7 km/h 19.3 km/h 59% 0.0 mm 287 W/m2
14:14 22.5 °C 13.6 °C 1015.6 hPa WSW 7.9 km/h 11.3 km/h 57% 0.0 mm 250 W/m2
14:19 22.2 °C 13.3 °C 1015.6 hPa WSW 1.4 km/h 19.3 km/h 57% 0.0 mm 223 W/m2
Juneau County Weather
Compliments of Weather Underground - 2 mb